Wyoming, New York
Current Conditions -  °F | °C
As of 3:54 PM on Tuesday 21 Oct 2014 (Local Time) from KDSV Reporting Station
Overcast Overcast  
Wind Chill: 56°   Ceiling: 8500
Heat Index: 56°   Visibility: 10mi
Dew Point: 48°   Wind: 6mph
Humidity: 75%   Direction: 340°NNW
Pressure: 29.87"   Gusts: NA
Location:  42.83°N, 78.09°W
Report Text: KDSV 211954Z AUTO 34005KT 10SM FEW017 OVC085 13/09 A2987 RMK AO2 SLP125 T01330089
Loading
Personal Weather Stations






























Interactive Weather Map
Tropical Storm Tracking
New forecast layout! Learn more

10-Day Weather Forecast

Advertisements
Track Severe Weather on mobile